Time;durP1;ratioP1;P1;durP2;ratioP2;P2;SDS_P1;SDS_P2;PMS_P1;PMS_P2;Temp;Humidity;BMP_temperature;BMP_pressure;BME280_temperature;BME280_humidity;BME280_pressure;Samples;Min_cycle;Max_cycle;Signal;HPM_P1;HPM_P2
2022/01/15 00:01:43;;;;;;;43.97;17.63;;;0.90;99.90;;;;;;4957597;28;20031;-58
2022/01/15 00:04:09;;;;;;;47.10;17.13;;;1.00;99.90;;;;;;4964426;28;20027;-58
2022/01/15 00:06:34;;;;;;;48.22;18.25;;;1.00;99.90;;;;;;4961839;28;20034;-58
2022/01/15 00:09:00;;;;;;;49.08;18.80;;;1.00;99.90;;;;;;4975145;28;20023;-58
2022/01/15 00:11:26;;;;;;;40.45;17.73;;;0.90;99.90;;;;;;4964583;28;20786;-58
2022/01/15 00:14:11;;;;;;;52.13;18.80;;;1.00;99.90;;;;;;4965368;28;20034;-58
2022/01/15 00:16:48;;;;;;;36.72;16.05;;;1.00;99.90;;;;;;4964147;28;20040;-58
2022/01/15 00:19:17;;;;;;;43.30;17.98;;;1.00;99.90;;;;;;4965009;28;20036;-58
2022/01/15 00:21:43;;;;;;;46.47;17.45;;;1.00;99.90;;;;;;4968007;28;20063;-58
2022/01/15 00:24:08;;;;;;;39.22;16.98;;;1.00;99.90;;;;;;4967729;28;20026;-59
2022/01/15 00:26:34;;;;;;;38.78;17.40;;;1.00;99.90;;;;;;4960840;28;20027;-58
2022/01/15 00:29:00;;;;;;;41.75;16.75;;;1.10;99.90;;;;;;4948292;28;20035;-58
2022/01/15 00:31:26;;;;;;;39.45;16.60;;;1.10;99.90;;;;;;4950565;28;20039;-58
2022/01/15 00:33:52;;;;;;;41.72;16.63;;;1.10;99.90;;;;;;4969654;28;20023;-57
2022/01/15 00:36:17;;;;;;;43.97;17.80;;;1.10;99.90;;;;;;4957222;28;20025;-59
2022/01/15 00:38:44;;;;;;;35.33;16.70;;;1.10;99.90;;;;;;4977143;28;20054;-59
2022/01/15 00:41:09;;;;;;;43.38;18.23;;;1.10;99.90;;;;;;4961060;28;20446;-57
2022/01/15 00:43:35;;;;;;;44.60;17.23;;;1.00;99.90;;;;;;4966159;28;20118;-58
2022/01/15 00:46:01;;;;;;;49.40;19.45;;;1.00;99.90;;;;;;4970328;28;20030;-58
2022/01/15 00:48:27;;;;;;;40.63;17.00;;;1.10;99.90;;;;;;4979302;28;20394;-58
2022/01/15 00:50:53;;;;;;;43.13;17.02;;;1.10;99.90;;;;;;4966194;28;20105;-58
2022/01/15 00:53:19;;;;;;;54.78;20.52;;;1.00;99.90;;;;;;4968291;28;20068;-58
2022/01/15 00:55:45;;;;;;;51.85;18.88;;;1.10;99.90;;;;;;4968758;28;20438;-58
2022/01/15 00:58:12;;;;;;;49.80;18.40;;;1.10;99.90;;;;;;4977280;28;20019;-58
2022/01/15 01:00:38;;;;;;;61.40;21.10;;;1.10;99.90;;;;;;4967755;28;20050;-58
2022/01/15 01:03:03;;;;;;;63.30;22.20;;;1.10;99.90;;;;;;4972837;28;20130;-58
2022/01/15 01:05:29;;;;;;;57.90;19.88;;;1.10;99.90;;;;;;4960116;28;20043;-59
2022/01/15 01:07:56;;;;;;;62.28;21.33;;;1.10;99.90;;;;;;4965448;28;20031;-58
2022/01/15 01:13:16;;;;;;;50.67;18.25;;;1.10;99.90;;;;;;4964578;28;20626;-58
2022/01/15 01:23:48;;;;;;;49.80;18.70;;;1.10;99.90;;;;;;4971562;28;20022;-58
2022/01/15 01:26:41;;;;;;;58.58;19.42;;;1.10;99.90;;;;;;4975473;28;20577;-58
2022/01/15 01:29:22;;;;;;;49.65;18.13;;;1.10;99.90;;;;;;4966570;28;20031;-58
2022/01/15 01:32:00;;;;;;;49.33;18.80;;;1.20;99.90;;;;;;4963107;28;20082;-58
2022/01/15 01:34:29;;;;;;;47.58;18.55;;;1.20;99.90;;;;;;4965445;28;21019;-58
2022/01/15 01:37:09;;;;;;;;;;;;;;;;;;;;;
2022/01/15 01:39:37;;;;;;;52.80;17.75;;;1.20;99.90;;;;;;4964823;28;20118;-58
2022/01/15 01:44:31;;;;;;;51.10;16.77;;;1.20;99.90;;;;;;4961913;28;20033;-58
2022/01/15 01:47:05;;;;;;;45.50;16.35;;;1.20;99.90;;;;;;4960734;28;20035;-58
2022/01/15 01:49:30;;;;;;;44.25;17.17;;;1.20;99.90;;;;;;4968125;28;20082;-58
2022/01/15 01:51:56;;;;;;;50.33;19.77;;;1.20;99.90;;;;;;4976001;28;20030;-59
2022/01/15 01:54:22;;;;;;;39.33;16.55;;;1.20;99.90;;;;;;4959675;28;20027;-59
2022/01/15 01:56:49;;;;;;;47.45;17.25;;;1.20;99.90;;;;;;4968374;28;20076;-58
2022/01/15 01:59:16;;;;;;;46.22;19.25;;;1.20;99.90;;;;;;4964230;28;20038;-58
2022/01/15 02:01:43;;;;;;;38.72;16.95;;;1.20;99.90;;;;;;4967467;28;20031;-58
2022/01/15 02:04:09;;;;;;;33.33;16.95;;;1.20;99.90;;;;;;4967727;28;20110;-59
2022/01/15 02:06:36;;;;;;;35.67;16.92;;;1.20;99.90;;;;;;4971587;28;20027;-59
2022/01/15 02:09:05;;;;;;;34.92;16.35;;;1.20;99.90;;;;;;4969352;28;20015;-60
2022/01/15 02:11:31;;;;;;;35.92;15.02;;;1.20;99.90;;;;;;4963810;28;20145;-59
2022/01/15 02:13:56;;;;;;;30.92;15.32;;;1.20;99.90;;;;;;4966186;28;20118;-59
2022/01/15 02:16:22;;;;;;;36.00;15.20;;;1.20;99.90;;;;;;4968751;28;20031;-59
2022/01/15 02:18:54;;;;;;;29.30;14.20;;;1.20;99.90;;;;;;4976572;28;20027;-60
2022/01/15 02:23:50;;;;;;;34.60;15.35;;;1.20;99.90;;;;;;4960240;28;20022;-60
2022/01/15 02:26:23;;;;;;;34.20;15.73;;;1.20;99.90;;;;;;4970665;28;20019;-60
2022/01/15 02:28:56;;;;;;;33.75;14.13;;;1.20;99.90;;;;;;4966547;28;20038;-59
2022/01/15 02:31:23;;;;;;;34.60;15.77;;;1.20;99.90;;;;;;4971850;28;20029;-60
2022/01/15 02:33:51;;;;;;;29.10;13.63;;;1.20;99.90;;;;;;4967992;28;20034;-59
2022/01/15 02:36:36;;;;;;;24.00;12.68;;;1.20;99.90;;;;;;4959180;28;20019;-60
2022/01/15 02:39:04;;;;;;;22.95;12.68;;;1.20;99.90;;;;;;4968638;28;20029;-60
2022/01/15 02:41:38;;;;;;;20.73;12.38;;;1.10;99.90;;;;;;4963425;28;20051;-59
2022/01/15 02:44:09;;;;;;;22.92;13.10;;;1.10;99.90;;;;;;4956914;28;20110;-60
2022/01/15 02:48:00;;;;;;;21.05;12.20;;;1.10;99.90;;;;;;4962484;28;20031;-60
2022/01/15 02:49:23;;;;;;;25.60;13.40;;;1.10;99.90;;;;;;4966509;28;20030;-60
2022/01/15 02:51:49;;;;;;;29.92;13.20;;;1.20;99.90;;;;;;4973157;28;20023;-60
2022/01/15 02:54:15;;;;;;;27.95;13.20;;;1.10;99.90;;;;;;4975852;28;20042;-60
2022/01/15 02:56:43;;;;;;;32.63;13.32;;;1.10;99.90;;;;;;4976036;28;20120;-59
2022/01/15 02:59:15;;;;;;;32.85;14.77;;;1.10;99.90;;;;;;4966873;28;20090;-59
2022/01/15 03:01:41;;;;;;;29.05;13.68;;;1.10;99.90;;;;;;4965993;28;20031;-60
2022/01/15 03:04:07;;;;;;;32.30;14.90;;;1.20;99.90;;;;;;4970329;28;20081;-60
2022/01/15 03:06:32;;;;;;;30.02;13.68;;;1.20;99.90;;;;;;4968305;28;20027;-59
2022/01/15 03:08:58;;;;;;;38.88;17.17;;;1.20;99.90;;;;;;4971535;28;20437;-60
2022/01/15 03:11:24;;;;;;;33.50;14.35;;;1.20;99.90;;;;;;4974090;28;20039;-60
2022/01/15 03:13:51;;;;;;;35.78;15.02;;;1.20;99.90;;;;;;4965775;28;20043;-59
2022/01/15 03:16:19;;;;;;;36.70;13.90;;;1.20;99.90;;;;;;4963788;28;20035;-60
2022/01/15 03:18:45;;;;;;;37.38;16.63;;;1.20;99.90;;;;;;4964955;28;20034;-60
2022/01/15 03:21:11;;;;;;;35.25;15.77;;;1.20;99.90;;;;;;4965290;28;20022;-60
2022/01/15 03:23:37;;;;;;;35.53;14.98;;;1.20;99.90;;;;;;4975365;28;20106;-59
2022/01/15 03:26:05;;;;;;;33.85;14.90;;;1.20;99.90;;;;;;4969445;28;20027;-59
2022/01/15 03:28:31;;;;;;;39.05;15.95;;;1.20;99.90;;;;;;4962303;28;20023;-60
2022/01/15 03:30:57;;;;;;;41.97;16.83;;;1.20;99.90;;;;;;4965477;28;20034;-59
2022/01/15 03:33:22;;;;;;;44.45;16.80;;;1.20;99.90;;;;;;4970226;28;20034;-60
2022/01/15 03:35:48;;;;;;;44.28;17.63;;;1.20;99.90;;;;;;4971259;28;20023;-60
2022/01/15 03:38:14;;;;;;;41.95;17.00;;;1.20;99.90;;;;;;4960389;28;20019;-60
2022/01/15 03:40:39;;;;;;;50.05;17.45;;;1.20;99.90;;;;;;4960502;28;20384;-60
2022/01/15 03:43:05;;;;;;;45.97;18.08;;;1.20;99.90;;;;;;4973542;28;20034;-61
2022/01/15 03:45:32;;;;;;;38.17;15.43;;;1.20;99.90;;;;;;4963504;28;20034;-60
2022/01/15 03:47:58;;;;;;;42.40;16.48;;;1.20;99.90;;;;;;4966775;28;20038;-59
2022/01/15 03:50:26;;;;;;;39.08;16.95;;;1.20;99.90;;;;;;4968858;28;20034;-60
2022/01/15 03:52:53;;;;;;;35.72;15.77;;;1.20;99.90;;;;;;4964758;28;20039;-61
2022/01/15 03:55:20;;;;;;;37.08;16.17;;;1.20;99.90;;;;;;4966342;28;20035;-60
2022/01/15 03:57:46;;;;;;;42.42;17.80;;;1.20;99.90;;;;;;4966981;28;20032;-59
2022/01/15 04:00:16;;;;;;;48.25;17.45;;;1.20;99.90;;;;;;4971750;28;20476;-60
2022/01/15 04:02:42;;;;;;;42.05;17.30;;;1.20;99.90;;;;;;4971867;28;20421;-63
2022/01/15 04:05:09;;;;;;;39.75;15.82;;;1.20;99.90;;;;;;4964348;28;20065;-63
2022/01/15 04:07:35;;;;;;;41.35;17.50;;;1.20;99.90;;;;;;4968174;28;20030;-62
2022/01/15 04:10:02;;;;;;;44.22;17.60;;;1.30;99.90;;;;;;4963578;28;20093;-62
2022/01/15 04:12:27;;;;;;;46.95;18.88;;;1.30;99.90;;;;;;4964747;28;20541;-62
2022/01/15 04:14:53;;;;;;;40.70;17.95;;;1.30;99.90;;;;;;4968103;28;20035;-62
2022/01/15 04:17:19;;;;;;;40.13;16.95;;;1.30;99.90;;;;;;4973086;28;20043;-62
2022/01/15 04:19:45;;;;;;;45.13;18.45;;;1.30;99.90;;;;;;4963985;28;20030;-60
2022/01/15 04:22:11;;;;;;;43.20;19.13;;;1.30;99.90;;;;;;4973950;28;20059;-60
2022/01/15 04:24:36;;;;;;;46.80;17.55;;;1.30;99.90;;;;;;4968888;28;20065;-61
2022/01/15 04:27:02;;;;;;;39.78;16.75;;;1.30;99.90;;;;;;4968007;28;20391;-60
2022/01/15 04:29:30;;;;;;;46.28;17.33;;;1.30;99.90;;;;;;4976168;28;20505;-59
2022/01/15 04:31:55;;;;;;;47.88;17.35;;;1.30;99.90;;;;;;4967072;28;20047;-60
2022/01/15 04:34:24;;;;;;;40.97;16.42;;;1.30;99.90;;;;;;4976843;28;20054;-60
2022/01/15 04:36:52;;;;;;;45.55;17.15;;;1.30;99.90;;;;;;4971287;28;20050;-60
2022/01/15 04:39:17;;;;;;;47.17;17.60;;;1.30;99.90;;;;;;4972473;28;20023;-60
2022/01/15 04:41:43;;;;;;;45.75;19.40;;;1.30;99.90;;;;;;4969147;28;20054;-61
2022/01/15 04:44:09;;;;;;;48.25;17.13;;;1.30;99.90;;;;;;4966176;28;20027;-60
2022/01/15 04:46:36;;;;;;;47.10;17.70;;;1.20;99.90;;;;;;4965326;28;20488;-61
2022/01/15 04:49:02;;;;;;;43.45;18.05;;;1.20;99.90;;;;;;4968058;28;20032;-60
2022/01/15 04:51:28;;;;;;;38.67;16.95;;;1.20;99.90;;;;;;4966966;28;20035;-60
2022/01/15 04:53:53;;;;;;;49.08;18.45;;;1.20;99.90;;;;;;4966051;28;20464;-60
2022/01/15 04:56:19;;;;;;;42.50;17.02;;;1.20;99.90;;;;;;4973332;28;20395;-59
2022/01/15 04:58:45;;;;;;;43.90;17.63;;;1.20;99.90;;;;;;4965625;28;20062;-59
2022/01/15 05:01:11;;;;;;;51.38;20.33;;;1.20;99.90;;;;;;4966295;28;20085;-60
2022/01/15 05:03:36;;;;;;;46.53;18.95;;;1.20;99.90;;;;;;4973721;28;20126;-60
2022/01/15 05:06:02;;;;;;;43.08;18.95;;;1.20;99.90;;;;;;4971693;28;20023;-60
2022/01/15 05:08:28;;;;;;;43.03;18.23;;;1.20;99.90;;;;;;4973053;28;20630;-59
2022/01/15 05:10:57;;;;;;;48.30;17.83;;;1.20;99.90;;;;;;4974440;28;20102;-59
2022/01/15 05:13:27;;;;;;;46.08;17.70;;;1.20;99.90;;;;;;4974302;28;20034;-59
2022/01/15 05:15:53;;;;;;;48.45;18.77;;;1.20;99.90;;;;;;4964843;28;20058;-60
2022/01/15 05:18:19;;;;;;;57.10;21.60;;;1.20;99.90;;;;;;4972759;28;20056;-59
2022/01/15 05:20:45;;;;;;;35.58;16.23;;;1.10;99.90;;;;;;4971143;28;20051;-59
2022/01/15 05:23:12;;;;;;;49.28;17.67;;;1.10;99.90;;;;;;4966212;28;20024;-60
2022/01/15 05:25:38;;;;;;;40.28;17.15;;;1.10;99.90;;;;;;4966309;28;20042;-61
2022/01/15 05:28:04;;;;;;;42.28;18.10;;;1.20;99.90;;;;;;4969826;28;20027;-60
2022/01/15 05:30:31;;;;;;;44.30;17.27;;;1.20;99.90;;;;;;4967554;28;20028;-60
2022/01/15 05:32:58;;;;;;;43.15;17.90;;;1.20;99.90;;;;;;4965993;28;20033;-60
2022/01/15 05:35:26;;;;;;;49.33;17.45;;;1.20;99.90;;;;;;4969116;28;20088;-59
2022/01/15 05:37:56;;;;;;;44.35;17.40;;;1.10;99.90;;;;;;4974121;28;20035;-60
2022/01/15 05:40:22;;;;;;;49.37;17.60;;;1.10;99.90;;;;;;4971267;28;20035;-59
2022/01/15 05:42:48;;;;;;;48.55;17.95;;;1.10;99.90;;;;;;4969704;28;20051;-59
2022/01/15 05:45:15;;;;;;;44.42;18.10;;;1.10;99.90;;;;;;4964455;28;20051;-60
2022/01/15 05:47:40;;;;;;;46.47;19.40;;;1.10;99.90;;;;;;4964694;28;20117;-60
2022/01/15 05:50:07;;;;;;;46.28;17.00;;;1.10;99.90;;;;;;4971149;28;20068;-60
2022/01/15 05:52:32;;;;;;;43.00;19.10;;;1.10;99.90;;;;;;4971411;28;20185;-60
2022/01/15 05:54:58;;;;;;;50.00;18.90;;;1.10;99.90;;;;;;4967580;28;20106;-60
2022/01/15 05:57:24;;;;;;;47.13;17.50;;;1.10;99.90;;;;;;4961000;28;20050;-59
2022/01/15 05:59:51;;;;;;;49.00;17.50;;;1.10;99.90;;;;;;4967733;28;20055;-60
2022/01/15 06:02:18;;;;;;;46.05;19.02;;;1.10;99.90;;;;;;4964548;28;20027;-59
2022/01/15 06:04:44;;;;;;;49.25;19.75;;;1.10;99.90;;;;;;4960365;28;20032;-59
2022/01/15 06:07:10;;;;;;;42.08;17.88;;;1.10;99.90;;;;;;4962443;28;20038;-59
2022/01/15 06:09:35;;;;;;;44.50;17.48;;;1.10;99.90;;;;;;4973743;28;20026;-60
2022/01/15 06:12:01;;;;;;;44.10;17.38;;;1.10;99.90;;;;;;4968343;28;20019;-60
2022/01/15 06:14:28;;;;;;;48.25;19.38;;;1.10;99.90;;;;;;4959826;28;20046;-59
2022/01/15 06:16:53;;;;;;;39.72;16.00;;;1.10;99.90;;;;;;4963829;28;20031;-59
2022/01/15 06:19:19;;;;;;;37.15;15.15;;;1.10;99.90;;;;;;4961406;28;20041;-60
2022/01/15 06:21:44;;;;;;;37.72;16.00;;;1.10;99.90;;;;;;4970346;28;20054;-59
2022/01/15 06:24:10;;;;;;;42.95;16.77;;;1.10;99.90;;;;;;4969273;28;20610;-60
2022/01/15 06:26:36;;;;;;;44.53;17.13;;;1.10;99.90;;;;;;4947954;28;20050;-59
2022/01/15 06:29:01;;;;;;;36.30;16.27;;;1.00;99.90;;;;;;4966891;28;20046;-60
2022/01/15 06:31:29;;;;;;;40.58;16.17;;;1.00;99.90;;;;;;4966921;28;20585;-60
2022/01/15 06:33:55;;;;;;;38.55;15.90;;;1.00;99.90;;;;;;4958458;28;20566;-60
2022/01/15 06:36:21;;;;;;;40.03;15.85;;;1.00;99.90;;;;;;4958269;28;20118;-59
2022/01/15 06:38:47;;;;;;;45.30;17.50;;;1.00;99.90;;;;;;4959298;28;20020;-59
2022/01/15 06:41:12;;;;;;;40.60;16.70;;;1.00;99.90;;;;;;4975427;28;20031;-60
2022/01/15 06:43:39;;;;;;;35.25;16.02;;;1.00;99.90;;;;;;4972211;28;20380;-59
2022/01/15 06:46:04;;;;;;;43.03;18.63;;;1.00;99.90;;;;;;4967929;28;20024;-60
2022/01/15 06:48:30;;;;;;;35.92;16.63;;;0.90;99.90;;;;;;4967848;28;20041;-60
2022/01/15 06:50:56;;;;;;;32.92;15.93;;;0.90;99.90;;;;;;4961223;28;20024;-59
2022/01/15 06:53:22;;;;;;;46.15;17.85;;;0.90;99.90;;;;;;4967344;28;20126;-59
2022/01/15 06:55:51;;;;;;;43.42;18.83;;;1.00;99.90;;;;;;4971579;28;20204;-59
2022/01/15 06:58:17;;;;;;;44.65;16.95;;;0.90;99.90;;;;;;4971067;28;20030;-60
2022/01/15 07:00:43;;;;;;;45.10;17.20;;;0.90;99.90;;;;;;4975391;28;20046;-59
2022/01/15 07:03:08;;;;;;;45.33;19.13;;;0.90;99.90;;;;;;4967804;28;20041;-60
2022/01/15 07:05:34;;;;;;;47.40;17.77;;;1.00;99.90;;;;;;4961191;28;20565;-59
2022/01/15 07:07:59;;;;;;;42.85;17.20;;;1.00;99.90;;;;;;4959437;28;20037;-60
2022/01/15 07:10:25;;;;;;;41.67;17.23;;;0.90;99.90;;;;;;4960194;28;20434;-60
2022/01/15 07:12:51;;;;;;;41.13;15.45;;;0.90;99.90;;;;;;4964104;28;20039;-59
2022/01/15 07:15:17;;;;;;;42.30;15.98;;;0.90;99.90;;;;;;4968115;28;20023;-60
2022/01/15 07:17:45;;;;;;;43.38;18.58;;;0.90;99.90;;;;;;4965474;28;20027;-61
2022/01/15 07:20:12;;;;;;;43.75;18.50;;;1.00;99.90;;;;;;4976940;28;20028;-61
2022/01/15 07:22:39;;;;;;;46.70;17.15;;;0.90;99.90;;;;;;4973175;28;20022;-62
2022/01/15 07:25:05;;;;;;;43.78;16.73;;;0.90;99.90;;;;;;4968738;28;20330;-62
2022/01/15 07:27:31;;;;;;;49.67;16.60;;;0.90;99.90;;;;;;4966120;28;20064;-60
2022/01/15 07:29:56;;;;;;;49.17;18.52;;;0.90;99.90;;;;;;4966071;28;20035;-60
2022/01/15 07:32:22;;;;;;;43.72;16.08;;;0.90;99.90;;;;;;4968049;28;20061;-60
2022/01/15 07:34:47;;;;;;;50.40;18.15;;;0.90;99.90;;;;;;4970042;28;20042;-60
2022/01/15 07:37:14;;;;;;;46.85;18.20;;;0.90;99.90;;;;;;4965191;28;20031;-60
2022/01/15 07:39:42;;;;;;;49.17;17.70;;;1.00;99.90;;;;;;4960401;28;20035;-60
2022/01/15 07:42:08;;;;;;;47.85;16.00;;;1.00;99.90;;;;;;4962306;28;20054;-60
2022/01/15 07:44:34;;;;;;;47.58;16.70;;;1.00;99.90;;;;;;4962211;28;20027;-60
2022/01/15 07:47:00;;;;;;;44.38;16.73;;;1.00;99.90;;;;;;4970171;28;20601;-60
2022/01/15 07:49:25;;;;;;;40.85;16.73;;;1.00;99.90;;;;;;4967747;28;20031;-60
2022/01/15 07:51:51;;;;;;;43.17;17.27;;;1.10;99.90;;;;;;4970272;28;20031;-62
2022/01/15 07:54:17;;;;;;;45.85;18.83;;;1.10;99.90;;;;;;4961943;28;20537;-60
2022/01/15 07:56:42;;;;;;;42.17;18.15;;;1.20;99.90;;;;;;4960368;28;20508;-62
2022/01/15 07:59:08;;;;;;;44.70;17.73;;;1.20;99.90;;;;;;4971778;28;20034;-59
2022/01/15 08:01:33;;;;;;;37.90;16.42;;;1.20;99.90;;;;;;4972246;28;20050;-59
2022/01/15 08:04:01;;;;;;;43.28;18.40;;;1.20;99.90;;;;;;4968569;28;20519;-60
2022/01/15 08:06:26;;;;;;;46.05;17.00;;;1.30;99.90;;;;;;4964930;28;20058;-60
2022/01/15 08:08:52;;;;;;;44.30;16.05;;;1.30;99.90;;;;;;4969861;28;20047;-60
2022/01/15 08:11:17;;;;;;;49.00;18.63;;;1.30;99.90;;;;;;4981328;28;20031;-60
2022/01/15 08:13:43;;;;;;;50.30;18.85;;;1.30;99.90;;;;;;4960978;28;20031;-60
2022/01/15 08:16:09;;;;;;;54.00;19.55;;;1.40;99.90;;;;;;4961566;28;20031;-63
2022/01/15 08:18:35;;;;;;;192.20;58.70;;;1.40;99.90;;;;;;4959749;28;20050;-62
2022/01/15 08:21:03;;;;;;;156.05;48.65;;;1.40;99.90;;;;;;4962771;28;20382;-62
2022/01/15 08:23:29;;;;;;;61.22;24.00;;;1.50;99.90;;;;;;4976836;28;20030;-61
2022/01/15 08:25:54;;;;;;;487.33;143.43;;;1.60;99.90;;;;;;4974607;28;20093;-62
2022/01/15 08:28:20;;;;;;;148.93;48.65;;;1.60;99.90;;;;;;4962641;28;20031;-62
2022/01/15 08:30:46;;;;;;;74.30;27.35;;;1.70;99.90;;;;;;4964848;28;20019;-61
2022/01/15 08:33:12;;;;;;;27.70;14.32;;;1.80;99.90;;;;;;4966138;28;20379;-61
2022/01/15 08:35:37;;;;;;;29.50;14.50;;;1.90;99.90;;;;;;4970823;28;20540;-62
2022/01/15 08:38:03;;;;;;;36.53;15.85;;;1.90;99.90;;;;;;4973709;28;20102;-62
2022/01/15 08:40:30;;;;;;;28.73;15.45;;;1.90;99.90;;;;;;4965059;28;20087;-62
2022/01/15 08:42:56;;;;;;;33.88;15.15;;;2.00;99.90;;;;;;4963324;28;20034;-61
2022/01/15 08:45:21;;;;;;;31.38;14.68;;;2.00;99.90;;;;;;4961702;28;20030;-61
2022/01/15 08:47:47;;;;;;;26.00;14.55;;;2.00;99.90;;;;;;4964498;28;20604;-62
2022/01/15 08:50:15;;;;;;;42.38;20.98;;;2.10;99.90;;;;;;4960991;28;20050;-63
2022/01/15 08:52:41;;;;;;;28.98;16.05;;;2.20;99.90;;;;;;4966958;28;20026;-62
2022/01/15 08:55:08;;;;;;;35.45;16.90;;;2.20;99.90;;;;;;4964739;28;20049;-61
2022/01/15 08:57:34;;;;;;;30.35;14.68;;;2.20;99.90;;;;;;4967527;28;20520;-62
2022/01/15 09:00:01;;;;;;;28.17;15.23;;;2.30;99.90;;;;;;4973141;28;20037;-62
2022/01/15 09:02:26;;;;;;;27.98;13.85;;;2.30;99.90;;;;;;4970405;28;20077;-61
2022/01/15 09:04:53;;;;;;;28.17;14.52;;;2.40;99.90;;;;;;4977473;28;20441;-63
2022/01/15 09:07:19;;;;;;;25.70;13.77;;;2.40;99.90;;;;;;4976146;28;20118;-62
2022/01/15 09:09:45;;;;;;;27.25;14.30;;;2.50;99.90;;;;;;4968521;28;20505;-61
2022/01/15 09:12:15;;;;;;;22.63;13.98;;;2.50;99.90;;;;;;4967695;28;20138;-61
2022/01/15 09:14:41;;;;;;;21.05;13.00;;;2.50;99.90;;;;;;4968466;28;20073;-62
2022/01/15 09:17:06;;;;;;;25.73;13.02;;;2.50;99.90;;;;;;4972255;28;20050;-62
2022/01/15 09:19:33;;;;;;;33.67;15.13;;;2.60;99.90;;;;;;4968217;28;20042;-62
2022/01/15 09:21:59;;;;;;;30.15;15.27;;;2.60;99.90;;;;;;4965308;28;20073;-61
2022/01/15 09:24:24;;;;;;;28.98;14.68;;;2.60;99.90;;;;;;4965506;28;20478;-62
2022/01/15 09:32:04;;;;;;;24.77;14.20;;;2.90;99.90;;;;;;4972099;28;20038;-62
2022/01/15 09:34:32;;;;;;;26.75;13.68;;;2.90;99.90;;;;;;4964900;28;20087;-62
2022/01/15 09:36:58;;;;;;;25.52;15.52;;;3.00;99.90;;;;;;4968517;28;20023;-62
2022/01/15 09:39:24;;;;;;;29.15;15.00;;;3.00;99.90;;;;;;4968066;28;20099;-62
2022/01/15 09:41:54;;;;;;;34.08;16.77;;;3.00;99.90;;;;;;4970404;28;20465;-62
2022/01/15 09:44:20;;;;;;;30.88;16.90;;;3.00;99.90;;;;;;4969860;28;20031;-62
2022/01/15 09:46:46;;;;;;;39.53;16.45;;;3.00;99.90;;;;;;4966479;28;20034;-62
2022/01/15 09:49:15;;;;;;;34.47;17.83;;;3.10;99.90;;;;;;4964486;28;20034;-62
2022/01/15 09:51:42;;;;;;;39.75;18.05;;;3.10;99.90;;;;;;4976773;28;20035;-62
2022/01/15 09:54:07;;;;;;;28.35;14.80;;;3.20;99.90;;;;;;4969024;28;20031;-62
2022/01/15 09:56:33;;;;;;;29.50;14.38;;;3.30;99.90;;;;;;4965352;28;20046;-63
2022/01/15 09:59:02;;;;;;;33.75;15.50;;;3.30;99.90;;;;;;4964190;28;20505;-62
2022/01/15 10:01:31;;;;;;;35.20;17.48;;;3.40;99.90;;;;;;4964466;28;20101;-62
2022/01/15 10:03:58;;;;;;;30.52;16.67;;;3.40;99.90;;;;;;4967463;28;20034;-61
2022/01/15 10:06:24;;;;;;;34.08;17.50;;;3.50;99.90;;;;;;4966499;28;20042;-62
2022/01/15 10:09:06;;;;;;;32.72;15.93;;;3.40;99.90;;;;;;4971560;28;20019;-62
2022/01/15 10:11:58;;;;;;;25.20;14.40;;;3.40;99.90;;;;;;4970882;28;20105;-62
2022/01/15 10:14:30;;;;;;;28.13;15.10;;;3.40;99.90;;;;;;4965677;28;20054;-61
2022/01/15 10:16:58;;;;;;;29.58;17.30;;;3.40;99.90;;;;;;4970856;28;20575;-62
2022/01/15 10:19:33;;;;;;;28.20;17.00;;;3.40;99.90;;;;;;4964591;28;20034;-62
2022/01/15 10:22:07;;;;;;;27.83;15.68;;;3.40;99.90;;;;;;4965595;28;20105;-62
2022/01/15 10:24:33;;;;;;;33.85;17.23;;;3.40;99.90;;;;;;4968076;28;20114;-62
2022/01/15 10:27:20;;;;;;;36.05;17.17;;;3.40;99.90;;;;;;4957172;28;20118;-62
2022/01/15 10:30:06;;;;;;;35.67;18.15;;;3.50;99.90;;;;;;4968102;28;20113;-61
2022/01/15 10:32:35;;;;;;;23.25;14.23;;;3.60;99.90;;;;;;4975843;28;20038;-62
2022/01/15 10:35:15;;;;;;;31.42;15.75;;;3.60;99.90;;;;;;4972605;28;20039;-62
2022/01/15 10:37:58;;;;;;;31.08;16.67;;;3.50;99.90;;;;;;4967748;28;20118;-62
2022/01/15 10:40:27;;;;;;;24.55;15.40;;;3.60;99.90;;;;;;4959795;28;20510;-62
2022/01/15 10:42:59;;;;;;;28.42;16.52;;;3.70;99.90;;;;;;4966448;28;20050;-62
2022/01/15 10:45:29;;;;;;;36.90;18.63;;;3.80;99.90;;;;;;4963548;28;20078;-62
2022/01/15 10:47:56;;;;;;;35.77;18.90;;;3.80;99.90;;;;;;4971496;28;20504;-61
2022/01/15 10:50:34;;;;;;;34.65;17.80;;;3.90;99.90;;;;;;4969214;28;20262;-62
2022/01/15 10:53:07;;;;;;;32.25;17.30;;;4.00;99.90;;;;;;4960090;28;20028;-62
2022/01/15 10:55:34;;;;;;;26.60;15.48;;;4.10;99.90;;;;;;4960134;28;20027;-62
2022/01/15 10:58:05;;;;;;;34.60;18.13;;;4.20;99.90;;;;;;4965701;28;20038;-62
2022/01/15 11:00:41;;;;;;;29.35;15.98;;;4.30;99.90;;;;;;4962216;28;20033;-61
2022/01/15 11:03:12;;;;;;;32.88;17.73;;;4.50;99.90;;;;;;4959593;28;20534;-62
2022/01/15 11:05:42;;;;;;;27.15;16.35;;;4.50;99.90;;;;;;4966741;28;20207;-62
2022/01/15 11:08:26;;;;;;;27.33;15.57;;;4.50;99.90;;;;;;4969975;28;20232;-61
2022/01/15 11:10:52;;;;;;;29.23;16.42;;;4.60;99.90;;;;;;4965091;28;20031;-62
2022/01/15 11:13:28;;;;;;;32.33;17.88;;;4.70;99.90;;;;;;4984429;28;20089;-62
2022/01/15 11:15:57;;;;;;;32.13;16.90;;;4.60;99.90;;;;;;4968302;28;20042;-62
2022/01/15 11:18:29;;;;;;;31.23;16.83;;;4.70;99.90;;;;;;4962688;28;20027;-62
2022/01/15 11:20:58;;;;;;;31.88;16.70;;;4.80;99.90;;;;;;4970675;28;20045;-62
2022/01/15 11:23:26;;;;;;;37.00;19.42;;;4.90;99.90;;;;;;4966334;28;20031;-62
2022/01/15 11:25:54;;;;;;;31.85;18.33;;;4.80;99.90;;;;;;4961890;28;20027;-63
2022/01/15 11:28:30;;;;;;;38.15;20.35;;;4.80;99.90;;;;;;4963929;28;20112;-62
2022/01/15 11:31:00;;;;;;;34.50;19.10;;;4.80;99.90;;;;;;4964583;28;20113;-62
2022/01/15 11:33:30;;;;;;;32.78;17.90;;;4.80;99.90;;;;;;4963267;28;20050;-62
2022/01/15 11:35:55;;;;;;;34.10;18.58;;;4.90;99.90;;;;;;4962428;28;20046;-62
2022/01/15 11:38:44;;;;;;;28.20;17.27;;;4.90;99.90;;;;;;4976798;28;20421;-63
2022/01/15 11:41:28;;;;;;;34.45;18.15;;;5.00;99.90;;;;;;4971044;28;20050;-62
2022/01/15 11:44:00;;;;;;;30.38;17.60;;;5.10;99.90;;;;;;4960614;28;20035;-62
2022/01/15 11:46:31;;;;;;;31.05;17.52;;;5.00;99.90;;;;;;4964485;28;20024;-62
2022/01/15 11:49:29;;;;;;;32.03;17.88;;;5.10;99.90;;;;;;4967139;28;20042;-61
2022/01/15 11:52:10;;;;;;;33.60;17.73;;;5.20;99.90;;;;;;4967109;28;20069;-61
2022/01/15 11:54:37;;;;;;;34.63;19.35;;;5.20;99.90;;;;;;4969577;28;20049;-61
2022/01/15 11:57:04;;;;;;;33.20;19.30;;;5.10;99.90;;;;;;4959638;28;20022;-61
2022/01/15 11:59:30;;;;;;;29.85;16.70;;;5.30;99.90;;;;;;4962868;28;20066;-61
2022/01/15 12:02:01;;;;;;;18.73;12.20;;;5.40;99.90;;;;;;4967233;28;20035;-61
2022/01/15 12:04:35;;;;;;;22.67;13.43;;;5.40;99.90;;;;;;4962080;28;20035;-60
2022/01/15 12:07:01;;;;;;;13.88;10.27;;;5.40;99.90;;;;;;4963249;28;20059;-61
2022/01/15 12:09:37;;;;;;;16.67;10.88;;;5.20;99.90;;;;;;4980505;28;20073;-61
2022/01/15 12:12:30;;;;;;;18.42;13.95;;;5.00;99.90;;;;;;4972661;28;20463;-61
2022/01/15 12:14:56;;;;;;;25.45;15.50;;;5.00;99.90;;;;;;4969733;28;20043;-61
2022/01/15 12:17:43;;;;;;;12.18;8.43;;;5.00;99.90;;;;;;4988429;28;20041;-61
2022/01/15 12:20:17;;;;;;;10.35;7.85;;;5.00;99.90;;;;;;4968566;28;20027;-61
2022/01/15 12:22:45;;;;;;;13.68;8.85;;;4.90;99.90;;;;;;4963421;28;20079;-62
2022/01/15 12:25:16;;;;;;;8.90;6.15;;;5.00;99.90;;;;;;4971127;28;20058;-61
2022/01/15 12:27:44;;;;;;;3.97;3.50;;;5.10;99.90;;;;;;4966426;28;20110;-61
2022/01/15 12:30:19;;;;;;;5.22;3.72;;;5.00;99.90;;;;;;4965099;28;20033;-62
2022/01/15 12:32:51;;;;;;;5.78;5.18;;;4.70;99.90;;;;;;4967946;28;20133;-60
2022/01/15 12:35:22;;;;;;;5.13;4.00;;;4.70;99.90;;;;;;4961559;28;20031;-61
2022/01/15 12:37:57;;;;;;;4.10;3.05;;;4.90;99.90;;;;;;4966506;28;20409;-62
2022/01/15 12:40:34;;;;;;;8.50;3.95;;;5.00;99.90;;;;;;4963653;28;20454;-61
2022/01/15 12:43:15;;;;;;;4.90;3.90;;;5.10;99.90;;;;;;4971745;28;20023;-61
2022/01/15 12:45:41;;;;;;;5.85;3.65;;;4.80;99.90;;;;;;4971977;28;20031;-61
2022/01/15 12:48:28;;;;;;;5.10;3.70;;;4.60;99.90;;;;;;4968137;28;20019;-62
2022/01/15 12:50:53;;;;;;;4.68;3.72;;;4.70;99.90;;;;;;4974738;28;20096;-61
2022/01/15 12:53:22;;;;;;;8.77;5.18;;;4.80;99.90;;;;;;4967497;28;20030;-61
2022/01/15 12:55:48;;;;;;;5.65;4.10;;;4.90;99.90;;;;;;4978547;28;20034;-60
2022/01/15 12:58:22;;;;;;;5.85;4.45;;;5.00;99.90;;;;;;4972826;28;20031;-60
2022/01/15 13:00:48;;;;;;;7.75;5.25;;;4.80;99.40;;;;;;4967701;28;20571;-61
2022/01/15 13:03:24;;;;;;;6.88;5.00;;;4.80;99.90;;;;;;4974983;28;20418;-61
2022/01/15 13:05:52;;;;;;;7.07;5.78;;;4.60;99.90;;;;;;4970176;28;20043;-61